Time;durP1;ratioP1;P1;durP2;ratioP2;P2;SDS_P1;SDS_P2;PMS_P1;PMS_P2;Temp;Humidity;BMP_temperature;BMP_pressure;BME280_temperature;BME280_humidity;BME280_pressure;Samples;Min_cycle;Max_cycle;Signal;HPM_P1;HPM_P2
2021/12/09 00:00:43;;;;;;;78.68;38.05;;;;;;;;;;5054980;28;20052;-39
2021/12/09 00:03:12;;;;;;;73.43;36.40;;;;;;;;;;5054811;28;20021;-39
2021/12/09 00:05:42;;;;;;;64.35;29.83;;;;;;;;;;5054726;28;20033;-39
2021/12/09 00:08:07;;;;;;;76.87;35.13;;;;;;;;;;5055056;28;20033;-38
2021/12/09 00:10:34;;;;;;;77.50;36.80;;;;;;;;;;5054638;28;20033;-39
2021/12/09 00:13:01;;;;;;;77.50;33.53;;;;;;;;;;5055020;28;20412;-39
2021/12/09 00:15:26;;;;;;;74.47;33.42;;;;;;;;;;5054499;28;20056;-39
2021/12/09 00:17:52;;;;;;;85.40;39.92;;;;;;;;;;5054843;28;20072;-39
2021/12/09 00:20:18;;;;;;;83.15;36.53;;;;;;;;;;5054830;28;20150;-38
2021/12/09 00:22:45;;;;;;;76.88;33.72;;;;;;;;;;5054494;28;20025;-38
2021/12/09 00:25:11;;;;;;;65.82;30.42;;;;;;;;;;5054369;28;20116;-38
2021/12/09 00:27:36;;;;;;;65.90;28.50;;;;;;;;;;5054655;28;20066;-38
2021/12/09 00:30:04;;;;;;;86.78;40.78;;;;;;;;;;5054609;28;20459;-38
2021/12/09 00:32:30;;;;;;;90.10;45.28;;;;;;;;;;5054652;28;20406;-39
2021/12/09 00:34:55;;;;;;;62.72;28.63;;;;;;;;;;5054177;28;20045;-39
2021/12/09 00:39:49;;;;;;;54.63;23.33;;;;;;;;;;5054240;28;20481;-40
2021/12/09 00:42:16;;;;;;;54.33;22.70;;;;;;;;;;5054021;28;20029;-39
2021/12/09 00:44:41;;;;;;;50.25;24.13;;;;;;;;;;5054417;28;20025;-40
2021/12/09 00:47:07;;;;;;;42.53;18.00;;;;;;;;;;5054355;28;20111;-39
2021/12/09 00:49:33;;;;;;;39.47;19.90;;;;;;;;;;5054214;28;20500;-39
2021/12/09 00:51:59;;;;;;;41.80;20.63;;;;;;;;;;5054272;28;20028;-39
2021/12/09 00:54:25;;;;;;;39.10;19.95;;;;;;;;;;5054319;28;20111;-39
2021/12/09 00:56:50;;;;;;;55.65;27.73;;;;;;;;;;5054069;28;20058;-39
2021/12/09 00:59:16;;;;;;;48.58;23.95;;;;;;;;;;5054062;28;20045;-39
2021/12/09 01:01:42;;;;;;;41.53;21.50;;;;;;;;;;5054076;28;20063;-39
2021/12/09 01:04:08;;;;;;;70.50;33.70;;;;;;;;;;5054082;28;20403;-39
2021/12/09 01:06:33;;;;;;;47.67;21.40;;;;;;;;;;5053723;28;20363;-38
2021/12/09 01:08:59;;;;;;;58.13;27.40;;;;;;;;;;5053877;28;20032;-38
2021/12/09 01:11:24;;;;;;;64.05;31.45;;;;;;;;;;5053608;28;20131;-39
2021/12/09 01:13:50;;;;;;;62.70;31.77;;;;;;;;;;5053847;28;20032;-39
2021/12/09 01:16:16;;;;;;;53.42;25.17;;;;;;;;;;5053499;28;20021;-39
2021/12/09 01:18:42;;;;;;;74.75;37.38;;;;;;;;;;5053782;28;20056;-38
2021/12/09 01:21:08;;;;;;;73.10;32.58;;;;;;;;;;5053276;28;20549;-39
2021/12/09 01:23:35;;;;;;;94.65;42.67;;;;;;;;;;5053628;28;20505;-39
2021/12/09 01:26:03;;;;;;;63.95;27.98;;;;;;;;;;5053616;28;20025;-39
2021/12/09 01:28:34;;;;;;;93.13;47.17;;;;;;;;;;5053228;28;20024;-39
2021/12/09 01:31:05;;;;;;;82.82;39.30;;;;;;;;;;5053615;28;20029;-38
2021/12/09 01:33:32;;;;;;;76.68;35.65;;;;;;;;;;5053437;28;20029;-40
2021/12/09 01:35:58;;;;;;;92.93;42.78;;;;;;;;;;5052923;28;20056;-39
2021/12/09 01:38:28;;;;;;;63.15;29.40;;;;;;;;;;5053172;28;20103;-39
2021/12/09 01:40:55;;;;;;;74.75;34.53;;;;;;;;;;5053082;28;20469;-39
2021/12/09 01:43:21;;;;;;;69.20;31.42;;;;;;;;;;5053266;28;20036;-39
2021/12/09 01:45:46;;;;;;;90.20;43.55;;;;;;;;;;5053220;28;20033;-39
2021/12/09 01:48:12;;;;;;;71.53;34.17;;;;;;;;;;5053249;28;20159;-39
2021/12/09 01:50:38;;;;;;;65.47;26.67;;;;;;;;;;5053176;28;20048;-38
2021/12/09 01:53:07;;;;;;;83.90;40.47;;;;;;;;;;5052695;28;20170;-38
2021/12/09 01:55:34;;;;;;;57.33;23.90;;;;;;;;;;5035552;28;20130;-38
2021/12/09 01:58:00;;;;;;;79.78;34.00;;;;;;;;;;5052936;28;20039;-38
2021/12/09 02:00:31;;;;;;;90.85;41.00;;;;;;;;;;5052916;28;20029;-39
2021/12/09 02:02:57;;;;;;;70.18;33.03;;;;;;;;;;5052950;28;20028;-39
2021/12/09 02:05:24;;;;;;;68.03;31.67;;;;;;;;;;5052802;28;20407;-39
2021/12/09 02:07:50;;;;;;;67.80;31.55;;;;;;;;;;5052471;28;20034;-39
2021/12/09 02:10:18;;;;;;;71.28;31.73;;;;;;;;;;5052361;28;20039;-39
2021/12/09 02:12:46;;;;;;;59.22;26.52;;;;;;;;;;5052488;28;20063;-39
2021/12/09 02:15:12;;;;;;;86.95;37.80;;;;;;;;;;5052746;28;20036;-39
2021/12/09 02:17:38;;;;;;;79.85;34.75;;;;;;;;;;5052232;28;20029;-39
2021/12/09 02:20:05;;;;;;;63.20;25.65;;;;;;;;;;5052395;28;20032;-39
2021/12/09 02:22:31;;;;;;;45.88;19.08;;;;;;;;;;5052695;28;20466;-39
2021/12/09 02:24:57;;;;;;;50.25;22.33;;;;;;;;;;5034532;28;20029;-39
2021/12/09 02:27:25;;;;;;;48.95;20.77;;;;;;;;;;5052320;28;20116;-38
2021/12/09 02:29:54;;;;;;;39.50;18.13;;;;;;;;;;5052274;28;20493;-39
2021/12/09 02:32:19;;;;;;;63.45;27.10;;;;;;;;;;5052229;28;20017;-39
2021/12/09 02:34:45;;;;;;;40.10;19.48;;;;;;;;;;5052167;28;20082;-40
2021/12/09 02:37:13;;;;;;;52.58;21.73;;;;;;;;;;5052108;28;20033;-39
2021/12/09 02:39:43;;;;;;;56.92;27.13;;;;;;;;;;5052115;28;20020;-38
2021/12/09 02:42:09;;;;;;;43.43;19.97;;;;;;;;;;5052454;28;20023;-38
2021/12/09 02:44:35;;;;;;;46.08;22.33;;;;;;;;;;5052373;28;20171;-39
2021/12/09 02:47:00;;;;;;;72.93;33.08;;;;;;;;;;5052460;28;20112;-39
2021/12/09 02:49:28;;;;;;;77.15;30.35;;;;;;;;;;5052091;28;20486;-38
2021/12/09 02:51:55;;;;;;;62.67;26.80;;;;;;;;;;5052105;28;20025;-39
2021/12/09 02:54:23;;;;;;;56.78;24.65;;;;;;;;;;5052388;28;20100;-39
2021/12/09 02:56:51;;;;;;;45.38;17.60;;;;;;;;;;5034553;28;20359;-39
2021/12/09 02:59:17;;;;;;;24.55;12.05;;;;;;;;;;5034135;28;20443;-39
2021/12/09 03:01:57;;;;;;;50.45;19.20;;;;;;;;;;5052212;28;20115;-39
2021/12/09 03:04:37;;;;;;;45.65;21.10;;;;;;;;;;5052318;28;20134;-39
2021/12/09 03:07:03;;;;;;;52.58;24.42;;;;;;;;;;5052337;28;20493;-39
2021/12/09 03:09:28;;;;;;;59.13;25.98;;;;;;;;;;5051905;28;20517;-39
2021/12/09 03:11:55;;;;;;;49.22;23.50;;;;;;;;;;5034157;28;20021;-39
2021/12/09 03:14:24;;;;;;;54.67;21.90;;;;;;;;;;5051843;28;20025;-39
2021/12/09 03:16:51;;;;;;;48.17;20.92;;;;;;;;;;5052009;28;20439;-39
2021/12/09 03:19:17;;;;;;;72.18;31.15;;;;;;;;;;5051731;28;20028;-38
2021/12/09 03:21:45;;;;;;;71.13;29.45;;;;;;;;;;5053873;28;20029;-39
2021/12/09 03:24:14;;;;;;;73.45;32.78;;;;;;;;;;5055512;28;20025;-39
2021/12/09 03:26:55;;;;;;;69.82;27.33;;;;;;;;;;5055772;28;20390;-39
2021/12/09 03:29:23;;;;;;;80.88;31.08;;;;;;;;;;5055789;28;20024;-39
2021/12/09 03:31:52;;;;;;;78.00;32.20;;;;;;;;;;5055368;28;20025;-38
2021/12/09 03:34:20;;;;;;;101.90;43.42;;;;;;;;;;5055321;28;20143;-39
2021/12/09 03:36:49;;;;;;;99.03;42.55;;;;;;;;;;5055541;28;20025;-39
2021/12/09 03:39:18;;;;;;;90.07;36.92;;;;;;;;;;5055649;28;20102;-38
2021/12/09 03:41:47;;;;;;;94.72;39.17;;;;;;;;;;5055634;28;20393;-38
2021/12/09 03:44:13;;;;;;;80.65;29.42;;;;;;;;;;5055614;28;20129;-38
2021/12/09 03:46:40;;;;;;;76.18;31.80;;;;;;;;;;5055511;28;20032;-38
2021/12/09 03:49:05;;;;;;;85.00;37.20;;;;;;;;;;5055486;28;20064;-38
2021/12/09 03:51:35;;;;;;;83.35;33.58;;;;;;;;;;5055234;28;20029;-39
2021/12/09 03:54:02;;;;;;;83.25;34.45;;;;;;;;;;5055430;28;20029;-39
2021/12/09 03:56:27;;;;;;;68.60;29.58;;;;;;;;;;5037699;28;20020;-38
2021/12/09 03:58:53;;;;;;;73.35;28.80;;;;;;;;;;5055016;28;20043;-39
2021/12/09 04:01:18;;;;;;;68.90;28.30;;;;;;;;;;5054927;28;20025;-39
2021/12/09 04:03:44;;;;;;;72.03;29.13;;;;;;;;;;5055224;28;20033;-38
2021/12/09 04:06:09;;;;;;;71.00;28.45;;;;;;;;;;5055195;28;20020;-38
2021/12/09 04:08:35;;;;;;;75.90;32.05;;;;;;;;;;5054790;28;20021;-39
2021/12/09 04:11:02;;;;;;;63.42;26.10;;;;;;;;;;5055155;28;20029;-39
2021/12/09 04:13:28;;;;;;;58.33;25.67;;;;;;;;;;5055089;28;20347;-39
2021/12/09 04:15:54;;;;;;;67.18;28.60;;;;;;;;;;5054616;28;20057;-39
2021/12/09 04:18:21;;;;;;;55.83;22.98;;;;;;;;;;5054702;28;20110;-39
2021/12/09 04:20:46;;;;;;;57.85;22.23;;;;;;;;;;5054512;28;20035;-39
2021/12/09 04:23:12;;;;;;;74.22;30.90;;;;;;;;;;5054815;28;20025;-38
2021/12/09 04:25:38;;;;;;;50.33;19.63;;;;;;;;;;5054822;28;20032;-39
2021/12/09 04:28:04;;;;;;;51.20;22.05;;;;;;;;;;5054399;28;20497;-39
2021/12/09 04:30:30;;;;;;;54.13;24.83;;;;;;;;;;5054446;28;20024;-39
2021/12/09 04:32:57;;;;;;;59.30;23.42;;;;;;;;;;5053952;28;20084;-39
2021/12/09 04:35:23;;;;;;;46.72;18.80;;;;;;;;;;5054121;28;20115;-38
2021/12/09 04:37:48;;;;;;;60.97;27.38;;;;;;;;;;5054235;28;20045;-38
2021/12/09 04:40:16;;;;;;;35.95;13.88;;;;;;;;;;5054532;28;20060;-39
2021/12/09 04:42:42;;;;;;;60.00;26.58;;;;;;;;;;5054367;28;20021;-38
2021/12/09 04:45:09;;;;;;;47.88;22.75;;;;;;;;;;5054412;28;20078;-38
2021/12/09 04:47:35;;;;;;;59.25;26.73;;;;;;;;;;5054024;28;20047;-39
2021/12/09 04:50:00;;;;;;;54.70;22.77;;;;;;;;;;5053991;28;20029;-38
2021/12/09 04:52:26;;;;;;;39.55;18.55;;;;;;;;;;5054077;28;20052;-39
2021/12/09 04:54:52;;;;;;;49.70;21.65;;;;;;;;;;5053835;28;20056;-38
2021/12/09 04:57:17;;;;;;;43.47;19.50;;;;;;;;;;5054073;28;20023;-39
2021/12/09 04:59:43;;;;;;;43.25;18.98;;;;;;;;;;5053836;28;20017;-39
2021/12/09 05:02:15;;;;;;;60.03;28.42;;;;;;;;;;5053777;28;20017;-39
2021/12/09 05:04:41;;;;;;;38.42;18.05;;;;;;;;;;5053808;28;20036;-40
2021/12/09 05:07:06;;;;;;;42.53;17.90;;;;;;;;;;5053648;28;20029;-39
2021/12/09 05:09:37;;;;;;;52.00;26.00;;;;;;;;;;5053760;28;20626;-38
2021/12/09 05:12:05;;;;;;;41.20;16.77;;;;;;;;;;5053679;28;20035;-39
2021/12/09 05:14:31;;;;;;;35.92;14.98;;;;;;;;;;5053572;28;20504;-39
2021/12/09 05:16:58;;;;;;;69.15;31.50;;;;;;;;;;5053716;28;20035;-39
2021/12/09 05:19:24;;;;;;;51.47;20.80;;;;;;;;;;5053461;28;20032;-39
2021/12/09 05:21:52;;;;;;;61.05;28.67;;;;;;;;;;5053835;28;20037;-39
2021/12/09 05:24:18;;;;;;;42.25;19.05;;;;;;;;;;5053690;28;20025;-39
2021/12/09 05:26:49;;;;;;;51.03;22.67;;;;;;;;;;5053348;28;20025;-39
2021/12/09 05:29:17;;;;;;;56.25;27.38;;;;;;;;;;5053624;28;20040;-39
2021/12/09 05:34:29;;;;;;;48.92;22.48;;;;;;;;;;5053290;28;20051;-38
2021/12/09 05:36:54;;;;;;;59.85;28.50;;;;;;;;;;5053345;28;20056;-39
2021/12/09 05:39:20;;;;;;;60.13;29.60;;;;;;;;;;5053361;28;20056;-39
2021/12/09 05:41:47;;;;;;;59.15;28.75;;;;;;;;;;5053114;28;20450;-38
2021/12/09 05:44:13;;;;;;;57.92;29.08;;;;;;;;;;5052176;28;20111;-38
2021/12/09 05:46:43;;;;;;;56.08;29.08;;;;;;;;;;5053287;28;20025;-38
2021/12/09 05:49:09;;;;;;;49.93;23.47;;;;;;;;;;5052943;28;20540;-39
2021/12/09 05:51:35;;;;;;;39.03;18.55;;;;;;;;;;5053113;28;20393;-39
2021/12/09 05:54:01;;;;;;;38.58;19.27;;;;;;;;;;5052886;28;20017;-38
2021/12/09 05:56:27;;;;;;;48.45;22.02;;;;;;;;;;5052733;28;20025;-39
2021/12/09 05:58:52;;;;;;;49.60;21.27;;;;;;;;;;5052913;28;20029;-39
2021/12/09 06:01:18;;;;;;;54.58;24.63;;;;;;;;;;5052987;28;20588;-39
2021/12/09 06:03:43;;;;;;;46.08;21.42;;;;;;;;;;5052945;28;20029;-38
2021/12/09 06:06:10;;;;;;;34.97;16.98;;;;;;;;;;5052926;28;20029;-39
2021/12/09 06:08:38;;;;;;;30.08;16.63;;;;;;;;;;5052582;28;20021;-39
2021/12/09 06:11:04;;;;;;;42.45;19.70;;;;;;;;;;5052890;28;20104;-39
2021/12/09 06:13:31;;;;;;;40.60;20.45;;;;;;;;;;5052797;28;20074;-39
2021/12/09 06:15:57;;;;;;;42.15;20.25;;;;;;;;;;5052607;28;20101;-39
2021/12/09 06:18:23;;;;;;;50.33;23.75;;;;;;;;;;5052734;28;20074;-38
2021/12/09 06:20:49;;;;;;;41.67;18.40;;;;;;;;;;5052673;28;20025;-38
2021/12/09 06:23:14;;;;;;;46.78;22.73;;;;;;;;;;5052547;28;20104;-39
2021/12/09 06:25:40;;;;;;;32.80;16.35;;;;;;;;;;5052603;28;20032;-39
2021/12/09 06:28:05;;;;;;;46.38;21.30;;;;;;;;;;5052311;28;20462;-38
2021/12/09 06:30:31;;;;;;;32.22;15.48;;;;;;;;;;5052272;28;20025;-39
2021/12/09 06:32:56;;;;;;;40.58;18.15;;;;;;;;;;5052604;28;20092;-38
2021/12/09 06:35:22;;;;;;;37.55;18.92;;;;;;;;;;5052064;28;20407;-39
2021/12/09 06:37:48;;;;;;;46.30;21.13;;;;;;;;;;5052213;28;20032;-39
2021/12/09 06:40:19;;;;;;;64.07;30.77;;;;;;;;;;5052004;28;20032;-39
2021/12/09 06:42:45;;;;;;;58.25;27.42;;;;;;;;;;5051972;28;20112;-39
2021/12/09 06:45:13;;;;;;;54.00;25.42;;;;;;;;;;5052027;28;20033;-39
2021/12/09 06:47:39;;;;;;;59.67;26.27;;;;;;;;;;5051977;28;20025;-39
2021/12/09 06:50:07;;;;;;;62.17;31.25;;;;;;;;;;5052258;28;20112;-39
2021/12/09 06:52:33;;;;;;;59.05;28.75;;;;;;;;;;5052273;28;20036;-39
2021/12/09 06:54:59;;;;;;;59.95;31.67;;;;;;;;;;5052889;28;20057;-39
2021/12/09 06:57:25;;;;;;;56.70;26.52;;;;;;;;;;5055825;28;20029;-39
2021/12/09 06:59:51;;;;;;;50.92;24.23;;;;;;;;;;5055992;28;20036;-39
2021/12/09 07:02:17;;;;;;;42.90;20.08;;;;;;;;;;5055815;28;20064;-38
2021/12/09 07:04:43;;;;;;;48.28;22.17;;;;;;;;;;5056017;28;20547;-39
2021/12/09 07:07:08;;;;;;;54.05;25.60;;;;;;;;;;5055963;28;20466;-39
2021/12/09 07:09:36;;;;;;;43.85;20.30;;;;;;;;;;5056080;28;20020;-39
2021/12/09 07:12:02;;;;;;;51.13;23.17;;;;;;;;;;5056256;28;20041;-39
2021/12/09 07:14:28;;;;;;;41.92;19.23;;;;;;;;;;5055831;28;20056;-39
2021/12/09 07:16:53;;;;;;;37.75;18.35;;;;;;;;;;5056064;28;20059;-39
2021/12/09 07:19:19;;;;;;;37.08;16.77;;;;;;;;;;5056064;28;20075;-39
2021/12/09 07:21:44;;;;;;;37.08;18.92;;;;;;;;;;5056032;28;20435;-39
2021/12/09 07:24:10;;;;;;;46.00;21.90;;;;;;;;;;5055774;28;20591;-40
2021/12/09 07:26:35;;;;;;;44.33;20.63;;;;;;;;;;5055949;28;20028;-40
2021/12/09 07:29:02;;;;;;;29.40;15.48;;;;;;;;;;5055862;28;20029;-40
2021/12/09 07:31:28;;;;;;;37.00;18.20;;;;;;;;;;5055588;28;20025;-41
2021/12/09 07:33:56;;;;;;;33.10;16.92;;;;;;;;;;5055185;28;20036;-38
2021/12/09 07:36:22;;;;;;;43.88;22.95;;;;;;;;;;5055526;28;20033;-38
2021/12/09 07:38:48;;;;;;;35.15;16.38;;;;;;;;;;5055447;28;20033;-38
2021/12/09 07:41:15;;;;;;;31.30;15.65;;;;;;;;;;5055239;28;20040;-38
2021/12/09 07:43:41;;;;;;;41.00;20.77;;;;;;;;;;5055266;28;20083;-40
2021/12/09 07:46:07;;;;;;;41.25;21.45;;;;;;;;;;5055206;28;20025;-40
2021/12/09 07:48:32;;;;;;;43.13;19.42;;;;;;;;;;5055183;28;20025;-40
2021/12/09 07:50:58;;;;;;;39.95;20.45;;;;;;;;;;5055192;28;20025;-40
2021/12/09 07:53:24;;;;;;;41.38;20.65;;;;;;;;;;5054971;28;20029;-40
2021/12/09 07:55:51;;;;;;;39.78;18.48;;;;;;;;;;5055457;28;20381;-39
2021/12/09 07:58:17;;;;;;;42.28;23.13;;;;;;;;;;5055030;28;20032;-39
2021/12/09 08:00:43;;;;;;;34.22;19.52;;;;;;;;;;5054989;28;20033;-39
2021/12/09 08:03:09;;;;;;;52.97;28.23;;;;;;;;;;5055247;28;20022;-40
2021/12/09 08:05:38;;;;;;;39.50;21.90;;;;;;;;;;5054888;28;20060;-40
2021/12/09 08:08:04;;;;;;;27.15;14.40;;;;;;;;;;5054119;28;20116;-40
2021/12/09 08:10:30;;;;;;;31.00;15.23;;;;;;;;;;5055109;28;20029;-40
2021/12/09 08:12:58;;;;;;;36.72;17.75;;;;;;;;;;5054780;28;20524;-39
2021/12/09 08:15:24;;;;;;;36.45;20.48;;;;;;;;;;5054758;28;20049;-39
2021/12/09 08:18:04;;;;;;;34.30;17.00;;;;;;;;;;5053935;28;20035;-39
2021/12/09 08:20:31;;;;;;;27.93;14.60;;;;;;;;;;5053030;28;20033;-40
2021/12/09 08:22:58;;;;;;;31.73;14.75;;;;;;;;;;5052917;28;20355;-39
2021/12/09 08:25:23;;;;;;;31.77;16.10;;;;;;;;;;5052448;28;20032;-40
2021/12/09 08:27:50;;;;;;;30.80;15.63;;;;;;;;;;5052884;28;20025;-40
2021/12/09 08:30:20;;;;;;;27.90;14.90;;;;;;;;;;5054457;28;20063;-40
2021/12/09 08:32:46;;;;;;;34.35;16.80;;;;;;;;;;5054476;28;20527;-40
2021/12/09 08:35:12;;;;;;;27.58;13.55;;;;;;;;;;5052228;28;20044;-40
2021/12/09 08:37:37;;;;;;;29.75;15.63;;;;;;;;;;5052194;28;20110;-39
2021/12/09 08:40:05;;;;;;;27.95;14.90;;;;;;;;;;5052931;28;20037;-39
2021/12/09 08:42:31;;;;;;;26.48;12.68;;;;;;;;;;5053396;28;20124;-39
2021/12/09 08:44:57;;;;;;;31.85;16.83;;;;;;;;;;5053974;28;20111;-45
2021/12/09 08:47:22;;;;;;;28.58;16.95;;;;;;;;;;5050735;28;20040;-44
2021/12/09 08:49:48;;;;;;;23.25;13.07;;;;;;;;;;5054258;28;20033;-43
2021/12/09 08:52:14;;;;;;;31.05;17.20;;;;;;;;;;5053699;28;20032;-43
2021/12/09 08:54:40;;;;;;;30.52;15.45;;;;;;;;;;5035925;28;20059;-42
2021/12/09 08:57:05;;;;;;;29.58;15.98;;;;;;;;;;5053871;28;20025;-44
2021/12/09 08:59:31;;;;;;;28.00;13.95;;;;;;;;;;5054046;28;20067;-45
2021/12/09 09:01:57;;;;;;;27.90;15.55;;;;;;;;;;5054040;28;20446;-40
2021/12/09 09:04:22;;;;;;;28.45;12.48;;;;;;;;;;5053744;28;20060;-43
2021/12/09 09:06:56;;;;;;;26.40;14.20;;;;;;;;;;5053371;28;20033;-40
2021/12/09 09:09:25;;;;;;;23.25;12.70;;;;;;;;;;5053819;28;20028;-44
2021/12/09 09:11:51;;;;;;;27.42;16.92;;;;;;;;;;5053692;28;20071;-44
2021/12/09 09:14:17;;;;;;;36.38;21.70;;;;;;;;;;5053338;28;20051;-42
2021/12/09 09:16:43;;;;;;;21.73;13.95;;;;;;;;;;5053541;28;20037;-43
2021/12/09 09:19:09;;;;;;;27.60;15.35;;;;;;;;;;5052742;28;20025;-43
2021/12/09 09:21:35;;;;;;;21.20;12.05;;;;;;;;;;5053018;28;20382;-45
2021/12/09 09:24:03;;;;;;;25.70;14.75;;;;;;;;;;5052236;28;20025;-45
2021/12/09 09:26:29;;;;;;;27.45;16.02;;;;;;;;;;5053623;28;20116;-45
2021/12/09 09:28:55;;;;;;;28.55;16.08;;;;;;;;;;5053544;28;20025;-45
2021/12/09 09:31:24;;;;;;;26.02;14.60;;;;;;;;;;5053612;28;20029;-39
2021/12/09 09:33:49;;;;;;;28.20;14.38;;;;;;;;;;5053437;28;20025;-43
2021/12/09 09:36:15;;;;;;;33.50;20.58;;;;;;;;;;5052850;28;20037;-42
2021/12/09 09:38:40;;;;;;;24.45;13.00;;;;;;;;;;5035368;28;20021;-44
2021/12/09 09:41:10;;;;;;;26.35;15.13;;;;;;;;;;5053186;28;20347;-42
2021/12/09 09:43:56;;;;;;;25.90;15.70;;;;;;;;;;5052712;28;20037;-45
2021/12/09 09:46:26;;;;;;;26.85;14.05;;;;;;;;;;5053042;28;20086;-42
2021/12/09 09:48:53;;;;;;;26.63;13.23;;;;;;;;;;5052793;28;20474;-40
2021/12/09 09:51:21;;;;;;;29.67;13.95;;;;;;;;;;5053094;28;20021;-45
2021/12/09 09:53:47;;;;;;;19.23;9.63;;;;;;;;;;5052705;28;20032;-39
2021/12/09 09:56:18;;;;;;;23.38;13.35;;;;;;;;;;5052534;28;20104;-44
2021/12/09 09:58:56;;;;;;;24.58;13.35;;;;;;;;;;5052772;28;20029;-45
2021/12/09 10:01:23;;;;;;;16.98;9.77;;;;;;;;;;5034697;28;20455;-45
2021/12/09 10:03:52;;;;;;;26.50;13.90;;;;;;;;;;5052916;28;20120;-39
2021/12/09 10:06:19;;;;;;;26.05;12.15;;;;;;;;;;5052916;28;20429;-39
2021/12/09 10:08:46;;;;;;;25.77;14.45;;;;;;;;;;5052858;28;20423;-43
2021/12/09 10:11:12;;;;;;;27.33;15.43;;;;;;;;;;5052225;28;20492;-42
2021/12/09 10:13:40;;;;;;;23.27;13.25;;;;;;;;;;5052259;28;20028;-45
2021/12/09 10:16:21;;;;;;;22.00;11.95;;;;;;;;;;5052183;28;20040;-44
2021/12/09 10:18:49;;;;;;;22.45;12.57;;;;;;;;;;5034318;28;20485;-42
2021/12/09 10:21:24;;;;;;;25.13;14.45;;;;;;;;;;5051923;28;20033;-40
2021/12/09 10:24:04;;;;;;;25.48;13.65;;;;;;;;;;5051067;28;20043;-44
2021/12/09 10:26:36;;;;;;;16.38;9.80;;;;;;;;;;5050730;28;20470;-39
2021/12/09 10:29:07;;;;;;;19.52;10.00;;;;;;;;;;5049812;28;20104;-43
2021/12/09 10:31:40;;;;;;;22.55;12.27;;;;;;;;;;5050058;28;20535;-42
2021/12/09 10:34:31;;;;;;;18.52;10.35;;;;;;;;;;5050453;28;20156;-41
2021/12/09 10:37:20;;;;;;;18.25;10.30;;;;;;;;;;5050604;28;20036;-40
2021/12/09 10:39:48;;;;;;;15.25;8.40;;;;;;;;;;5049796;28;20041;-39
2021/12/09 10:42:30;;;;;;;21.73;13.45;;;;;;;;;;5049944;28;20107;-38
2021/12/09 10:44:59;;;;;;;8.10;5.35;;;;;;;;;;5046030;28;20663;-39
2021/12/09 10:50:34;;;;;;;19.85;10.27;;;;;;;;;;5030837;28;20032;-47
2021/12/09 10:55:52;;;;;;;13.10;6.30;;;;;;;;;;5030214;28;20041;-39
2021/12/09 10:58:21;;;;;;;11.13;6.32;;;;;;;;;;5030647;28;20037;-46
2021/12/09 11:00:55;;;;;;;12.77;6.45;;;;;;;;;;5030400;28;20497;-40
2021/12/09 11:03:27;;;;;;;9.40;6.32;;;;;;;;;;5030468;28;20026;-43
2021/12/09 11:06:06;;;;;;;17.38;8.15;;;;;;;;;;5030720;28;20033;-47
2021/12/09 11:08:31;;;;;;;10.25;6.13;;;;;;;;;;5030636;28;20037;-38
2021/12/09 11:11:25;;;;;;;8.52;5.45;;;;;;;;;;5030445;28;20048;-42
2021/12/09 11:14:12;;;;;;;16.98;8.75;;;;;;;;;;5030404;28;20036;-42
2021/12/09 11:16:43;;;;;;;13.00;7.35;;;;;;;;;;5030366;28;20036;-42
2021/12/09 11:19:25;;;;;;;13.05;6.80;;;;;;;;;;5030425;28;20076;-39
2021/12/09 11:21:59;;;;;;;10.32;6.20;;;;;;;;;;5030551;28;20041;-43
2021/12/09 11:24:31;;;;;;;12.40;6.75;;;;;;;;;;5030363;28;20039;-39
2021/12/09 11:27:07;;;;;;;9.23;5.47;;;;;;;;;;5041562;28;20029;-42
2021/12/09 11:29:37;;;;;;;13.77;8.05;;;;;;;;;;5048410;28;20068;-43
2021/12/09 11:34:59;;;;;;;17.65;9.88;;;;;;;;;;5039530;28;20059;-42
2021/12/09 11:40:19;;;;;;;20.98;9.80;;;;;;;;;;5050256;28;20033;-47
2021/12/09 11:42:48;;;;;;;11.35;6.70;;;;;;;;;;5052045;28;20025;-44
2021/12/09 11:45:18;;;;;;;7.75;4.63;;;;;;;;;;5054029;28;20029;-40
2021/12/09 11:47:47;;;;;;;7.75;5.85;;;;;;;;;;5053587;28;20435;-47
2021/12/09 11:50:19;;;;;;;11.75;6.82;;;;;;;;;;5053726;28;20102;-46
2021/12/09 11:52:45;;;;;;;14.43;9.10;;;;;;;;;;5052894;28;20024;-44
2021/12/09 11:55:15;;;;;;;7.78;4.80;;;;;;;;;;5053195;28;20450;-43
2021/12/09 11:57:46;;;;;;;11.63;6.63;;;;;;;;;;5047525;28;20106;-40
2021/12/09 12:12:35;;;;;;;15.50;8.65;;;;;;;;;;5053476;28;20044;-45
2021/12/09 12:40:19;;;;;;;4.35;3.15;;;;;;;;;;5013435;28;20026;-47
2021/12/09 12:42:55;;;;;;;6.80;5.35;;;;;;;;;;5013358;28;20044;-43
2021/12/09 12:46:05;;;;;;;10.00;6.72;;;;;;;;;;5012824;28;20045;-47
2021/12/09 12:51:26;;;;;;;13.63;8.18;;;;;;;;;;5013009;28;20034;-47
2021/12/09 12:53:54;;;;;;;17.90;10.88;;;;;;;;;;5012021;28;20036;-47
2021/12/09 12:56:33;;;;;;;15.75;9.18;;;;;;;;;;5012607;28;20474;-46
2021/12/09 12:59:05;;;;;;;15.73;7.65;;;;;;;;;;5012942;28;20109;-44
2021/12/09 13:01:32;;;;;;;24.58;12.38;;;;;;;;;;5010835;28;20121;-46
2021/12/09 13:04:08;;;;;;;13.18;8.07;;;;;;;;;;5012605;28;20034;-46
2021/12/09 13:06:49;;;;;;;24.15;12.35;;;;;;;;;;5012558;28;20466;-44
2021/12/09 13:09:37;;;;;;;23.63;11.82;;;;;;;;;;5012505;28;20065;-48
2021/12/09 13:12:07;;;;;;;11.30;6.90;;;;;;;;;;5012645;28;20057;-45
2021/12/09 13:14:37;;;;;;;19.05;9.75;;;;;;;;;;5012692;28;20022;-45
2021/12/09 13:17:09;;;;;;;33.03;13.85;;;;;;;;;;5012425;28;20049;-45
2021/12/09 13:22:07;;;;;;;16.15;9.20;;;;;;;;;;5012541;28;20033;-47
2021/12/09 13:24:40;;;;;;;20.83;12.48;;;;;;;;;;5012209;28;20065;-46
2021/12/09 13:27:21;;;;;;;21.23;12.75;;;;;;;;;;5012090;28;20057;-44
2021/12/09 13:33:41;;;;;;;19.40;10.90;;;;;;;;;;5012127;28;20821;-46
2021/12/09 13:36:37;;;;;;;25.77;11.95;;;;;;;;;;5012288;28;20045;-47
2021/12/09 13:48:05;;;;;;;16.92;10.32;;;;;;;;;;5012141;28;20352;-44
2021/12/09 13:55:31;;;;;;;30.75;16.65;;;;;;;;;;5012108;28;20471;-45
2021/12/09 13:57:58;;;;;;;26.10;15.38;;;;;;;;;;5011299;28;20475;-44
2021/12/09 14:00:27;;;;;;;33.20;18.65;;;;;;;;;;5011561;28;20030;-46
2021/12/09 14:02:55;;;;;;;23.65;14.10;;;;;;;;;;5011568;28;20112;-44
2021/12/09 14:05:22;;;;;;;27.17;13.70;;;;;;;;;;5010848;28;20030;-48
2021/12/09 14:07:59;;;;;;;28.67;15.02;;;;;;;;;;5011839;28;20064;-47
2021/12/09 14:10:28;;;;;;;26.23;14.35;;;;;;;;;;5011477;28;20040;-48
2021/12/09 14:13:01;;;;;;;17.35;9.95;;;;;;;;;;5011028;28;20034;-46
2021/12/09 14:15:36;;;;;;;28.80;16.08;;;;;;;;;;5011252;28;20034;-46
2021/12/09 14:18:08;;;;;;;16.17;7.68;;;;;;;;;;5011555;28;20029;-46
2021/12/09 14:20:33;;;;;;;17.27;10.32;;;;;;;;;;5011528;28;20037;-46
2021/12/09 14:22:59;;;;;;;29.40;15.27;;;;;;;;;;5013143;28;20026;-45
2021/12/09 14:25:28;;;;;;;27.33;14.77;;;;;;;;;;5012757;28;20022;-44
2021/12/09 14:27:55;;;;;;;25.98;14.70;;;;;;;;;;5012633;28;20029;-43
2021/12/09 14:30:22;;;;;;;34.20;17.63;;;;;;;;;;5012794;28;20113;-41
2021/12/09 14:32:52;;;;;;;22.65;12.60;;;;;;;;;;5012709;28;20487;-43
2021/12/09 14:35:21;;;;;;;18.73;10.75;;;;;;;;;;5039361;28;20056;-40
2021/12/09 14:37:49;;;;;;;29.67;16.97;;;;;;;;;;5052521;28;20028;-45
2021/12/09 14:40:20;;;;;;;20.15;12.68;;;;;;;;;;5034638;28;20025;-47
2021/12/09 14:42:59;;;;;;;20.15;11.48;;;;;;;;;;5052105;28;20105;-42
2021/12/09 14:45:27;;;;;;;11.65;6.22;;;;;;;;;;5052046;28;20029;-46
2021/12/09 14:48:05;;;;;;;7.30;4.72;;;;;;;;;;5052126;28;20385;-44
2021/12/09 14:50:39;;;;;;;14.90;10.23;;;;;;;;;;5052325;28;20025;-40
2021/12/09 14:53:05;;;;;;;20.58;11.20;;;;;;;;;;5052497;28;20025;-39
2021/12/09 14:55:37;;;;;;;11.70;7.78;;;;;;;;;;5052044;28;20032;-39
2021/12/09 14:58:12;;;;;;;12.32;7.30;;;;;;;;;;5052027;28;20120;-39
2021/12/09 15:00:59;;;;;;;10.57;7.82;;;;;;;;;;5052059;28;20051;-40
2021/12/09 15:03:42;;;;;;;11.07;6.03;;;;;;;;;;5050078;28;20542;-39
2021/12/09 15:06:22;;;;;;;12.20;7.38;;;;;;;;;;5049601;28;20039;-39
2021/12/09 15:08:53;;;;;;;16.38;8.70;;;;;;;;;;5052003;28;20029;-39
2021/12/09 15:11:18;;;;;;;12.88;7.10;;;;;;;;;;5051915;28;20531;-40
2021/12/09 15:13:51;;;;;;;13.45;8.40;;;;;;;;;;5052055;28;20144;-39
2021/12/09 15:16:24;;;;;;;17.75;7.63;;;;;;;;;;5053260;28;20489;-39
2021/12/09 15:18:50;;;;;;;21.10;8.57;;;;;;;;;;5055788;28;20036;-40
2021/12/09 15:21:20;;;;;;;11.57;7.20;;;;;;;;;;5055538;28;20021;-39
2021/12/09 15:23:52;;;;;;;17.02;10.40;;;;;;;;;;5055606;28;20028;-39
2021/12/09 15:26:35;;;;;;;25.27;12.75;;;;;;;;;;5055731;28;20049;-39
2021/12/09 15:29:21;;;;;;;20.63;12.60;;;;;;;;;;5055544;28;20110;-39
2021/12/09 15:31:58;;;;;;;15.40;7.45;;;;;;;;;;5054688;28;20032;-39
2021/12/09 15:34:26;;;;;;;15.85;9.07;;;;;;;;;;5050105;28;20083;-39
2021/12/09 15:37:04;;;;;;;10.35;6.43;;;;;;;;;;5055141;28;20094;-39
2021/12/09 15:39:32;;;;;;;6.85;5.45;;;;;;;;;;5052050;28;20130;-39
2021/12/09 15:42:04;;;;;;;21.00;8.20;;;;;;;;;;5028879;28;20511;-39
2021/12/09 15:44:35;;;;;;;18.40;10.65;;;;;;;;;;5015646;28;20368;-39